<?xml version="1.0" encoding="UTF-8" standalone="no" ?>
<gpx xmlns="http://www.topografix.com/GPX/1/1" xmlns:xsi="http://www.w3.org/2001/XMLSchema-instance" xsi:schemaLocation="http://www.topografix.com/GPX/1/1 http://www.topografix.com/GPX/1/1/gpx.xsd" version="1.1" creator="VisuGPX - https://www.visugpx.com">
  <metadata>
    <name>Prospection chemins praticables 1</name>
  </metadata>
  <trk>
    <name><![CDATA[Prospection chemins praticables 1_3]]></name>
    <trkseg>
      <trkpt lat="47.7104" lon="5.08422">
        <ele>447.96</ele>
        <time>2021-08-26T16:05:39Z</time>
      </trkpt>
      <trkpt lat="47.71034" lon="5.08434">
        <ele>449.77</ele>
        <time>2021-08-26T16:05:53Z</time>
      </trkpt>
      <trkpt lat="47.71029" lon="5.08441">
        <ele>449.75</ele>
        <time>2021-08-26T16:06:10Z</time>
      </trkpt>
      <trkpt lat="47.71027" lon="5.08441">
        <ele>449.95</ele>
        <time>2021-08-26T16:06:17Z</time>
      </trkpt>
      <trkpt lat="47.71024" lon="5.08453">
        <ele>450.79</ele>
        <time>2021-08-26T16:06:31Z</time>
      </trkpt>
      <trkpt lat="47.71015" lon="5.08468">
        <ele>452.42</ele>
        <time>2021-08-26T16:06:48Z</time>
      </trkpt>
      <trkpt lat="47.71009" lon="5.08476">
        <ele>453.57</ele>
        <time>2021-08-26T16:07:02Z</time>
      </trkpt>
      <trkpt lat="47.71001" lon="5.08489">
        <ele>454.93</ele>
        <time>2021-08-26T16:07:18Z</time>
      </trkpt>
      <trkpt lat="47.70987" lon="5.08493">
        <ele>456.24</ele>
        <time>2021-08-26T16:07:35Z</time>
      </trkpt>
      <trkpt lat="47.70981" lon="5.08499">
        <ele>456.17</ele>
        <time>2021-08-26T16:08:06Z</time>
      </trkpt>
      <trkpt lat="47.70976" lon="5.08498">
        <ele>456.56</ele>
        <time>2021-08-26T16:08:44Z</time>
      </trkpt>
      <trkpt lat="47.70963" lon="5.08495">
        <ele>458.37</ele>
        <time>2021-08-26T16:08:58Z</time>
      </trkpt>
      <trkpt lat="47.70963" lon="5.08495">
        <ele>458.41</ele>
        <time>2021-08-26T16:09:07Z</time>
      </trkpt>
      <trkpt lat="47.70957" lon="5.08484">
        <ele>459.24</ele>
        <time>2021-08-26T16:09:19Z</time>
      </trkpt>
      <trkpt lat="47.70955" lon="5.08483">
        <ele>459.61</ele>
        <time>2021-08-26T16:09:21Z</time>
      </trkpt>
      <trkpt lat="47.70949" lon="5.08464">
        <ele>461.03</ele>
        <time>2021-08-26T16:09:36Z</time>
      </trkpt>
      <trkpt lat="47.70948" lon="5.08459">
        <ele>461.3</ele>
        <time>2021-08-26T16:09:39Z</time>
      </trkpt>
      <trkpt lat="47.70943" lon="5.08443">
        <ele>462.55</ele>
        <time>2021-08-26T16:09:53Z</time>
      </trkpt>
      <trkpt lat="47.70936" lon="5.08426">
        <ele>463.73</ele>
        <time>2021-08-26T16:10:08Z</time>
      </trkpt>
      <trkpt lat="47.70931" lon="5.08408">
        <ele>464.81</ele>
        <time>2021-08-26T16:10:22Z</time>
      </trkpt>
      <trkpt lat="47.7093" lon="5.08401">
        <ele>464.91</ele>
        <time>2021-08-26T16:10:26Z</time>
      </trkpt>
      <trkpt lat="47.70926" lon="5.08388">
        <ele>465.96</ele>
        <time>2021-08-26T16:10:38Z</time>
      </trkpt>
      <trkpt lat="47.70926" lon="5.08382">
        <ele>466.54</ele>
        <time>2021-08-26T16:10:43Z</time>
      </trkpt>
      <trkpt lat="47.70919" lon="5.08368">
        <ele>467.71</ele>
        <time>2021-08-26T16:10:56Z</time>
      </trkpt>
      <trkpt lat="47.70911" lon="5.08352">
        <ele>468.83</ele>
        <time>2021-08-26T16:11:09Z</time>
      </trkpt>
      <trkpt lat="47.7091" lon="5.08348">
        <ele>468.95</ele>
        <time>2021-08-26T16:11:11Z</time>
      </trkpt>
      <trkpt lat="47.70906" lon="5.0834">
        <ele>469.52</ele>
        <time>2021-08-26T16:11:19Z</time>
      </trkpt>
      <trkpt lat="47.70901" lon="5.08329">
        <ele>469.97</ele>
        <time>2021-08-26T16:11:29Z</time>
      </trkpt>
      <trkpt lat="47.70896" lon="5.08309">
        <ele>470.6</ele>
        <time>2021-08-26T16:11:43Z</time>
      </trkpt>
      <trkpt lat="47.70887" lon="5.08297">
        <ele>472.2</ele>
        <time>2021-08-26T16:11:57Z</time>
      </trkpt>
      <trkpt lat="47.70879" lon="5.08287">
        <ele>473.07</ele>
        <time>2021-08-26T16:12:06Z</time>
      </trkpt>
      <trkpt lat="47.70874" lon="5.08281">
        <ele>473.69</ele>
        <time>2021-08-26T16:12:12Z</time>
      </trkpt>
      <trkpt lat="47.70864" lon="5.08265">
        <ele>474.58</ele>
        <time>2021-08-26T16:12:28Z</time>
      </trkpt>
      <trkpt lat="47.70854" lon="5.08248">
        <ele>475.27</ele>
        <time>2021-08-26T16:12:44Z</time>
      </trkpt>
      <trkpt lat="47.7085" lon="5.08241">
        <ele>475.43</ele>
        <time>2021-08-26T16:12:49Z</time>
      </trkpt>
      <trkpt lat="47.70836" lon="5.08234">
        <ele>476.57</ele>
        <time>2021-08-26T16:13:03Z</time>
      </trkpt>
      <trkpt lat="47.70834" lon="5.08232">
        <ele>476.8</ele>
        <time>2021-08-26T16:13:06Z</time>
      </trkpt>
      <trkpt lat="47.70831" lon="5.08231">
        <ele>477.17</ele>
        <time>2021-08-26T16:13:10Z</time>
      </trkpt>
      <trkpt lat="47.70819" lon="5.08229">
        <ele>477.9</ele>
        <time>2021-08-26T16:13:26Z</time>
      </trkpt>
      <trkpt lat="47.70809" lon="5.08232">
        <ele>478.59</ele>
        <time>2021-08-26T16:13:40Z</time>
      </trkpt>
      <trkpt lat="47.70791" lon="5.08239">
        <ele>479.13</ele>
        <time>2021-08-26T16:13:56Z</time>
      </trkpt>
      <trkpt lat="47.70781" lon="5.08243">
        <ele>479.62</ele>
        <time>2021-08-26T16:14:10Z</time>
      </trkpt>
      <trkpt lat="47.70771" lon="5.08251">
        <ele>480.43</ele>
        <time>2021-08-26T16:14:21Z</time>
      </trkpt>
      <trkpt lat="47.70762" lon="5.08267">
        <ele>481.48</ele>
        <time>2021-08-26T16:14:36Z</time>
      </trkpt>
      <trkpt lat="47.70752" lon="5.08284">
        <ele>481.29</ele>
        <time>2021-08-26T16:14:52Z</time>
      </trkpt>
      <trkpt lat="47.70744" lon="5.08299">
        <ele>480.75</ele>
        <time>2021-08-26T16:15:06Z</time>
      </trkpt>
      <trkpt lat="47.70727" lon="5.08316">
        <ele>479.29</ele>
        <time>2021-08-26T16:15:24Z</time>
      </trkpt>
      <trkpt lat="47.70715" lon="5.08317">
        <ele>478.12</ele>
        <time>2021-08-26T16:15:34Z</time>
      </trkpt>
      <trkpt lat="47.70709" lon="5.08302">
        <ele>477.03</ele>
        <time>2021-08-26T16:15:50Z</time>
      </trkpt>
      <trkpt lat="47.70711" lon="5.08306">
        <ele>477.34</ele>
        <time>2021-08-26T16:15:53Z</time>
      </trkpt>
      <trkpt lat="47.70718" lon="5.08318">
        <ele>478.42</ele>
        <time>2021-08-26T16:16:01Z</time>
      </trkpt>
      <trkpt lat="47.70725" lon="5.08339">
        <ele>480.36</ele>
        <time>2021-08-26T16:16:16Z</time>
      </trkpt>
      <trkpt lat="47.70726" lon="5.08346">
        <ele>481.23</ele>
        <time>2021-08-26T16:16:21Z</time>
      </trkpt>
      <trkpt lat="47.70735" lon="5.08362">
        <ele>482.78</ele>
        <time>2021-08-26T16:16:34Z</time>
      </trkpt>
      <trkpt lat="47.70737" lon="5.08364">
        <ele>482.92</ele>
        <time>2021-08-26T16:16:36Z</time>
      </trkpt>
      <trkpt lat="47.70741" lon="5.08369">
        <ele>483.23</ele>
        <time>2021-08-26T16:16:41Z</time>
      </trkpt>
      <trkpt lat="47.7075" lon="5.08382">
        <ele>483.5</ele>
        <time>2021-08-26T16:16:52Z</time>
      </trkpt>
      <trkpt lat="47.70758" lon="5.08392">
        <ele>483.82</ele>
        <time>2021-08-26T16:17:03Z</time>
      </trkpt>
      <trkpt lat="47.7076" lon="5.08395">
        <ele>483.85</ele>
        <time>2021-08-26T16:17:05Z</time>
      </trkpt>
      <trkpt lat="47.70771" lon="5.08416">
        <ele>483.69</ele>
        <time>2021-08-26T16:17:20Z</time>
      </trkpt>
      <trkpt lat="47.70778" lon="5.08435">
        <ele>483.77</ele>
        <time>2021-08-26T16:17:33Z</time>
      </trkpt>
      <trkpt lat="47.70785" lon="5.08454">
        <ele>484.03</ele>
        <time>2021-08-26T16:17:47Z</time>
      </trkpt>
      <trkpt lat="47.70794" lon="5.08476">
        <ele>484.16</ele>
        <time>2021-08-26T16:18:04Z</time>
      </trkpt>
      <trkpt lat="47.70797" lon="5.08483">
        <ele>484.09</ele>
        <time>2021-08-26T16:18:20Z</time>
      </trkpt>
      <trkpt lat="47.70804" lon="5.08496">
        <ele>484.53</ele>
        <time>2021-08-26T16:18:39Z</time>
      </trkpt>
      <trkpt lat="47.70811" lon="5.08519">
        <ele>484.8</ele>
        <time>2021-08-26T16:18:56Z</time>
      </trkpt>
      <trkpt lat="47.70813" lon="5.08523">
        <ele>484.27</ele>
        <time>2021-08-26T16:18:59Z</time>
      </trkpt>
      <trkpt lat="47.70816" lon="5.08528">
        <ele>484.09</ele>
        <time>2021-08-26T16:19:03Z</time>
      </trkpt>
      <trkpt lat="47.70823" lon="5.08549">
        <ele>484.46</ele>
        <time>2021-08-26T16:19:17Z</time>
      </trkpt>
      <trkpt lat="47.70832" lon="5.08573">
        <ele>484.71</ele>
        <time>2021-08-26T16:19:33Z</time>
      </trkpt>
      <trkpt lat="47.70842" lon="5.08593">
        <ele>484.71</ele>
        <time>2021-08-26T16:19:48Z</time>
      </trkpt>
      <trkpt lat="47.70854" lon="5.08615">
        <ele>484.52</ele>
        <time>2021-08-26T16:20:03Z</time>
      </trkpt>
      <trkpt lat="47.70853" lon="5.08619">
        <ele>484.51</ele>
        <time>2021-08-26T16:20:25Z</time>
      </trkpt>
      <trkpt lat="47.70854" lon="5.08619">
        <ele>484.47</ele>
        <time>2021-08-26T16:20:38Z</time>
      </trkpt>
      <trkpt lat="47.70857" lon="5.08622">
        <ele>484.43</ele>
        <time>2021-08-26T16:20:42Z</time>
      </trkpt>
      <trkpt lat="47.70858" lon="5.08625">
        <ele>484.5</ele>
        <time>2021-08-26T16:20:44Z</time>
      </trkpt>
      <trkpt lat="47.70864" lon="5.08638">
        <ele>484.33</ele>
        <time>2021-08-26T16:20:59Z</time>
      </trkpt>
      <trkpt lat="47.70874" lon="5.08617">
        <ele>483.14</ele>
        <time>2021-08-26T16:21:15Z</time>
      </trkpt>
      <trkpt lat="47.70882" lon="5.08605">
        <ele>482.46</ele>
        <time>2021-08-26T16:21:29Z</time>
      </trkpt>
      <trkpt lat="47.70886" lon="5.08596">
        <ele>481.59</ele>
        <time>2021-08-26T16:21:41Z</time>
      </trkpt>
      <trkpt lat="47.70868" lon="5.08632">
        <ele>483.95</ele>
        <time>2021-08-26T16:22:12Z</time>
      </trkpt>
      <trkpt lat="47.70867" lon="5.08656">
        <ele>483.85</ele>
        <time>2021-08-26T16:22:28Z</time>
      </trkpt>
      <trkpt lat="47.70872" lon="5.08682">
        <ele>483.59</ele>
        <time>2021-08-26T16:22:44Z</time>
      </trkpt>
      <trkpt lat="47.70877" lon="5.08702">
        <ele>483.44</ele>
        <time>2021-08-26T16:23:00Z</time>
      </trkpt>
      <trkpt lat="47.70886" lon="5.0872">
        <ele>483.33</ele>
        <time>2021-08-26T16:23:13Z</time>
      </trkpt>
      <trkpt lat="47.7089" lon="5.08716">
        <ele>483.57</ele>
        <time>2021-08-26T16:23:29Z</time>
      </trkpt>
      <trkpt lat="47.70896" lon="5.08732">
        <ele>483.15</ele>
        <time>2021-08-26T16:23:42Z</time>
      </trkpt>
      <trkpt lat="47.70905" lon="5.08754">
        <ele>482.99</ele>
        <time>2021-08-26T16:23:57Z</time>
      </trkpt>
      <trkpt lat="47.70917" lon="5.08781">
        <ele>483.23</ele>
        <time>2021-08-26T16:24:15Z</time>
      </trkpt>
      <trkpt lat="47.70929" lon="5.08775">
        <ele>482.58</ele>
        <time>2021-08-26T16:24:28Z</time>
      </trkpt>
      <trkpt lat="47.7093" lon="5.0877">
        <ele>482.85</ele>
        <time>2021-08-26T16:24:46Z</time>
      </trkpt>
      <trkpt lat="47.70924" lon="5.08788">
        <ele>483.42</ele>
        <time>2021-08-26T16:24:58Z</time>
      </trkpt>
      <trkpt lat="47.70933" lon="5.08814">
        <ele>483.76</ele>
        <time>2021-08-26T16:25:17Z</time>
      </trkpt>
      <trkpt lat="47.70946" lon="5.08834">
        <ele>484.34</ele>
        <time>2021-08-26T16:25:34Z</time>
      </trkpt>
      <trkpt lat="47.70955" lon="5.08852">
        <ele>484.58</ele>
        <time>2021-08-26T16:25:48Z</time>
      </trkpt>
      <trkpt lat="47.70962" lon="5.08869">
        <ele>485.12</ele>
        <time>2021-08-26T16:26:02Z</time>
      </trkpt>
      <trkpt lat="47.7098" lon="5.08894">
        <ele>486.04</ele>
        <time>2021-08-26T16:26:21Z</time>
      </trkpt>
      <trkpt lat="47.70989" lon="5.0891">
        <ele>486.15</ele>
        <time>2021-08-26T16:26:37Z</time>
      </trkpt>
      <trkpt lat="47.70996" lon="5.08922">
        <ele>486.39</ele>
        <time>2021-08-26T16:26:50Z</time>
      </trkpt>
      <trkpt lat="47.70982" lon="5.08924">
        <ele>486.46</ele>
        <time>2021-08-26T16:27:03Z</time>
      </trkpt>
      <trkpt lat="47.70988" lon="5.08921">
        <ele>486.64</ele>
        <time>2021-08-26T16:27:20Z</time>
      </trkpt>
      <trkpt lat="47.70991" lon="5.08919">
        <ele>486.65</ele>
        <time>2021-08-26T16:27:22Z</time>
      </trkpt>
      <trkpt lat="47.71006" lon="5.08918">
        <ele>486.73</ele>
        <time>2021-08-26T16:27:36Z</time>
      </trkpt>
      <trkpt lat="47.71008" lon="5.08914">
        <ele>486.88</ele>
        <time>2021-08-26T16:27:39Z</time>
      </trkpt>
      <trkpt lat="47.71015" lon="5.08901">
        <ele>486.86</ele>
        <time>2021-08-26T16:27:52Z</time>
      </trkpt>
      <trkpt lat="47.71012" lon="5.08912">
        <ele>486.71</ele>
        <time>2021-08-26T16:28:05Z</time>
      </trkpt>
      <trkpt lat="47.71009" lon="5.0893">
        <ele>485.99</ele>
        <time>2021-08-26T16:28:21Z</time>
      </trkpt>
      <trkpt lat="47.71018" lon="5.08945">
        <ele>486.76</ele>
        <time>2021-08-26T16:28:35Z</time>
      </trkpt>
      <trkpt lat="47.71024" lon="5.08952">
        <ele>486.99</ele>
        <time>2021-08-26T16:28:42Z</time>
      </trkpt>
      <trkpt lat="47.71035" lon="5.08968">
        <ele>486.57</ele>
        <time>2021-08-26T16:28:57Z</time>
      </trkpt>
      <trkpt lat="47.71047" lon="5.08985">
        <ele>486.5</ele>
        <time>2021-08-26T16:29:13Z</time>
      </trkpt>
      <trkpt lat="47.7105" lon="5.08989">
        <ele>486.83</ele>
        <time>2021-08-26T16:29:35Z</time>
      </trkpt>
      <trkpt lat="47.7106" lon="5.09">
        <ele>486.08</ele>
        <time>2021-08-26T16:29:50Z</time>
      </trkpt>
      <trkpt lat="47.71067" lon="5.09007">
        <ele>485.84</ele>
        <time>2021-08-26T16:30:14Z</time>
      </trkpt>
      <trkpt lat="47.71078" lon="5.09018">
        <ele>485.69</ele>
        <time>2021-08-26T16:30:26Z</time>
      </trkpt>
      <trkpt lat="47.71083" lon="5.09024">
        <ele>485.69</ele>
        <time>2021-08-26T16:30:34Z</time>
      </trkpt>
      <trkpt lat="47.71085" lon="5.09026">
        <ele>485.64</ele>
        <time>2021-08-26T16:30:36Z</time>
      </trkpt>
      <trkpt lat="47.71091" lon="5.09036">
        <ele>485.39</ele>
        <time>2021-08-26T16:30:48Z</time>
      </trkpt>
      <trkpt lat="47.71094" lon="5.09037">
        <ele>485.72</ele>
        <time>2021-08-26T16:31:00Z</time>
      </trkpt>
      <trkpt lat="47.71098" lon="5.09023">
        <ele>485.29</ele>
        <time>2021-08-26T16:31:10Z</time>
      </trkpt>
      <trkpt lat="47.71107" lon="5.09009">
        <ele>484.71</ele>
        <time>2021-08-26T16:31:24Z</time>
      </trkpt>
      <trkpt lat="47.71109" lon="5.09017">
        <ele>484.95</ele>
        <time>2021-08-26T16:31:36Z</time>
      </trkpt>
      <trkpt lat="47.71104" lon="5.09029">
        <ele>485.14</ele>
        <time>2021-08-26T16:31:46Z</time>
      </trkpt>
      <trkpt lat="47.711" lon="5.09041">
        <ele>485.25</ele>
        <time>2021-08-26T16:31:58Z</time>
      </trkpt>
      <trkpt lat="47.71106" lon="5.09056">
        <ele>485.36</ele>
        <time>2021-08-26T16:32:09Z</time>
      </trkpt>
      <trkpt lat="47.71113" lon="5.0907">
        <ele>485.46</ele>
        <time>2021-08-26T16:32:27Z</time>
      </trkpt>
      <trkpt lat="47.7112" lon="5.09086">
        <ele>485.7</ele>
        <time>2021-08-26T16:32:41Z</time>
      </trkpt>
      <trkpt lat="47.71127" lon="5.09097">
        <ele>485.58</ele>
        <time>2021-08-26T16:32:51Z</time>
      </trkpt>
      <trkpt lat="47.71129" lon="5.09099">
        <ele>485.74</ele>
        <time>2021-08-26T16:32:53Z</time>
      </trkpt>
      <trkpt lat="47.71134" lon="5.09107">
        <ele>485.68</ele>
        <time>2021-08-26T16:33:00Z</time>
      </trkpt>
      <trkpt lat="47.71136" lon="5.09107">
        <ele>485.11</ele>
        <time>2021-08-26T16:33:16Z</time>
      </trkpt>
      <trkpt lat="47.7114" lon="5.09103">
        <ele>484.46</ele>
        <time>2021-08-26T16:33:23Z</time>
      </trkpt>
      <trkpt lat="47.71149" lon="5.0909">
        <ele>483.57</ele>
        <time>2021-08-26T16:33:38Z</time>
      </trkpt>
      <trkpt lat="47.71153" lon="5.09083">
        <ele>483.31</ele>
        <time>2021-08-26T16:33:45Z</time>
      </trkpt>
      <trkpt lat="47.71156" lon="5.09086">
        <ele>483.53</ele>
        <time>2021-08-26T16:33:57Z</time>
      </trkpt>
      <trkpt lat="47.71155" lon="5.09091">
        <ele>483.75</ele>
        <time>2021-08-26T16:34:00Z</time>
      </trkpt>
      <trkpt lat="47.71146" lon="5.09106">
        <ele>484.48</ele>
        <time>2021-08-26T16:34:14Z</time>
      </trkpt>
      <trkpt lat="47.7114" lon="5.09114">
        <ele>485.26</ele>
        <time>2021-08-26T16:34:26Z</time>
      </trkpt>
      <trkpt lat="47.71141" lon="5.09118">
        <ele>485.3</ele>
        <time>2021-08-26T16:34:29Z</time>
      </trkpt>
      <trkpt lat="47.71153" lon="5.09135">
        <ele>485.22</ele>
        <time>2021-08-26T16:34:45Z</time>
      </trkpt>
      <trkpt lat="47.71165" lon="5.09151">
        <ele>485.69</ele>
        <time>2021-08-26T16:34:59Z</time>
      </trkpt>
      <trkpt lat="47.71169" lon="5.09157">
        <ele>485.54</ele>
        <time>2021-08-26T16:35:04Z</time>
      </trkpt>
      <trkpt lat="47.71173" lon="5.09162">
        <ele>485.49</ele>
        <time>2021-08-26T16:35:09Z</time>
      </trkpt>
      <trkpt lat="47.71176" lon="5.09163">
        <ele>484.69</ele>
        <time>2021-08-26T16:35:24Z</time>
      </trkpt>
      <trkpt lat="47.71184" lon="5.09147">
        <ele>483.64</ele>
        <time>2021-08-26T16:35:38Z</time>
      </trkpt>
      <trkpt lat="47.71189" lon="5.09145">
        <ele>483.55</ele>
        <time>2021-08-26T16:35:56Z</time>
      </trkpt>
      <trkpt lat="47.71185" lon="5.09157">
        <ele>483.93</ele>
        <time>2021-08-26T16:36:05Z</time>
      </trkpt>
      <trkpt lat="47.71182" lon="5.09164">
        <ele>484.31</ele>
        <time>2021-08-26T16:36:11Z</time>
      </trkpt>
      <trkpt lat="47.71182" lon="5.09168">
        <ele>484.7</ele>
        <time>2021-08-26T16:36:13Z</time>
      </trkpt>
      <trkpt lat="47.71185" lon="5.09178">
        <ele>484.88</ele>
        <time>2021-08-26T16:36:25Z</time>
      </trkpt>
      <trkpt lat="47.71185" lon="5.09181">
        <ele>484.97</ele>
        <time>2021-08-26T16:36:41Z</time>
      </trkpt>
      <trkpt lat="47.7119" lon="5.09189">
        <ele>485.35</ele>
        <time>2021-08-26T16:37:26Z</time>
      </trkpt>
      <trkpt lat="47.71199" lon="5.092">
        <ele>484.46</ele>
        <time>2021-08-26T16:37:48Z</time>
      </trkpt>
      <trkpt lat="47.7121" lon="5.09215">
        <ele>484.3</ele>
        <time>2021-08-26T16:38:05Z</time>
      </trkpt>
      <trkpt lat="47.71216" lon="5.0923">
        <ele>483.86</ele>
        <time>2021-08-26T16:38:17Z</time>
      </trkpt>
      <trkpt lat="47.71221" lon="5.09249">
        <ele>483.7</ele>
        <time>2021-08-26T16:38:29Z</time>
      </trkpt>
      <trkpt lat="47.71223" lon="5.09253">
        <ele>483.83</ele>
        <time>2021-08-26T16:38:33Z</time>
      </trkpt>
      <trkpt lat="47.71225" lon="5.09255">
        <ele>483.64</ele>
        <time>2021-08-26T16:38:35Z</time>
      </trkpt>
      <trkpt lat="47.71231" lon="5.09264">
        <ele>483.12</ele>
        <time>2021-08-26T16:38:45Z</time>
      </trkpt>
      <trkpt lat="47.71233" lon="5.09267">
        <ele>483.12</ele>
        <time>2021-08-26T16:38:48Z</time>
      </trkpt>
      <trkpt lat="47.71243" lon="5.09283">
        <ele>483.1</ele>
        <time>2021-08-26T16:39:01Z</time>
      </trkpt>
      <trkpt lat="47.71245" lon="5.09288">
        <ele>483.08</ele>
        <time>2021-08-26T16:39:04Z</time>
      </trkpt>
      <trkpt lat="47.71247" lon="5.09295">
        <ele>483.16</ele>
        <time>2021-08-26T16:39:10Z</time>
      </trkpt>
      <trkpt lat="47.7125" lon="5.09316">
        <ele>483.1</ele>
        <time>2021-08-26T16:39:23Z</time>
      </trkpt>
      <trkpt lat="47.71249" lon="5.0932">
        <ele>483.02</ele>
        <time>2021-08-26T16:39:25Z</time>
      </trkpt>
      <trkpt lat="47.71239" lon="5.09339">
        <ele>482.79</ele>
        <time>2021-08-26T16:39:39Z</time>
      </trkpt>
      <trkpt lat="47.71237" lon="5.09359">
        <ele>482.59</ele>
        <time>2021-08-26T16:39:57Z</time>
      </trkpt>
      <trkpt lat="47.71233" lon="5.09361">
        <ele>482.7</ele>
        <time>2021-08-26T16:40:25Z</time>
      </trkpt>
      <trkpt lat="47.71234" lon="5.0937">
        <ele>482.52</ele>
        <time>2021-08-26T16:40:30Z</time>
      </trkpt>
      <trkpt lat="47.71234" lon="5.09391">
        <ele>481.83</ele>
        <time>2021-08-26T16:40:43Z</time>
      </trkpt>
      <trkpt lat="47.7124" lon="5.09417">
        <ele>481.28</ele>
        <time>2021-08-26T16:41:00Z</time>
      </trkpt>
      <trkpt lat="47.71241" lon="5.09433">
        <ele>480.4</ele>
        <time>2021-08-26T16:41:15Z</time>
      </trkpt>
      <trkpt lat="47.71244" lon="5.09435">
        <ele>479.88</ele>
        <time>2021-08-26T16:42:40Z</time>
      </trkpt>
      <trkpt lat="47.71243" lon="5.09433">
        <ele>479.99</ele>
        <time>2021-08-26T16:42:44Z</time>
      </trkpt>
      <trkpt lat="47.71243" lon="5.0943">
        <ele>480.02</ele>
        <time>2021-08-26T16:42:46Z</time>
      </trkpt>
      <trkpt lat="47.71239" lon="5.09423">
        <ele>480.34</ele>
        <time>2021-08-26T16:42:52Z</time>
      </trkpt>
      <trkpt lat="47.71237" lon="5.09419">
        <ele>480.46</ele>
        <time>2021-08-26T16:42:55Z</time>
      </trkpt>
      <trkpt lat="47.7123" lon="5.09396">
        <ele>481.49</ele>
        <time>2021-08-26T16:43:12Z</time>
      </trkpt>
      <trkpt lat="47.71232" lon="5.09368">
        <ele>482.23</ele>
        <time>2021-08-26T16:43:27Z</time>
      </trkpt>
      <trkpt lat="47.71232" lon="5.09366">
        <ele>482.34</ele>
        <time>2021-08-26T16:43:28Z</time>
      </trkpt>
      <trkpt lat="47.71236" lon="5.09337">
        <ele>482.58</ele>
        <time>2021-08-26T16:43:44Z</time>
      </trkpt>
      <trkpt lat="47.71239" lon="5.09331">
        <ele>482.71</ele>
        <time>2021-08-26T16:43:48Z</time>
      </trkpt>
      <trkpt lat="47.71246" lon="5.09301">
        <ele>482.82</ele>
        <time>2021-08-26T16:44:07Z</time>
      </trkpt>
      <trkpt lat="47.7124" lon="5.09284">
        <ele>482.81</ele>
        <time>2021-08-26T16:44:19Z</time>
      </trkpt>
      <trkpt lat="47.71224" lon="5.09263">
        <ele>483.43</ele>
        <time>2021-08-26T16:44:37Z</time>
      </trkpt>
      <trkpt lat="47.71213" lon="5.09236">
        <ele>483.78</ele>
        <time>2021-08-26T16:44:54Z</time>
      </trkpt>
      <trkpt lat="47.7121" lon="5.09206">
        <ele>483.2</ele>
        <time>2021-08-26T16:45:09Z</time>
      </trkpt>
      <trkpt lat="47.7121" lon="5.09203">
        <ele>483.19</ele>
        <time>2021-08-26T16:45:12Z</time>
      </trkpt>
      <trkpt lat="47.71209" lon="5.09193">
        <ele>483.08</ele>
        <time>2021-08-26T16:45:18Z</time>
      </trkpt>
      <trkpt lat="47.71211" lon="5.09174">
        <ele>482.59</ele>
        <time>2021-08-26T16:45:27Z</time>
      </trkpt>
      <trkpt lat="47.71221" lon="5.09151">
        <ele>481.67</ele>
        <time>2021-08-26T16:45:43Z</time>
      </trkpt>
      <trkpt lat="47.71221" lon="5.09144">
        <ele>481.36</ele>
        <time>2021-08-26T16:45:48Z</time>
      </trkpt>
      <trkpt lat="47.71221" lon="5.09138">
        <ele>481.04</ele>
        <time>2021-08-26T16:45:52Z</time>
      </trkpt>
      <trkpt lat="47.71222" lon="5.09133">
        <ele>480.79</ele>
        <time>2021-08-26T16:45:55Z</time>
      </trkpt>
      <trkpt lat="47.71222" lon="5.09122">
        <ele>480.28</ele>
        <time>2021-08-26T16:46:01Z</time>
      </trkpt>
      <trkpt lat="47.71223" lon="5.09117">
        <ele>480.04</ele>
        <time>2021-08-26T16:46:04Z</time>
      </trkpt>
      <trkpt lat="47.71225" lon="5.09091">
        <ele>479.05</ele>
        <time>2021-08-26T16:46:19Z</time>
      </trkpt>
      <trkpt lat="47.71226" lon="5.09088">
        <ele>478.98</ele>
        <time>2021-08-26T16:46:21Z</time>
      </trkpt>
      <trkpt lat="47.7123" lon="5.09067">
        <ele>477.83</ele>
        <time>2021-08-26T16:46:35Z</time>
      </trkpt>
      <trkpt lat="47.71232" lon="5.09061">
        <ele>477.45</ele>
        <time>2021-08-26T16:46:40Z</time>
      </trkpt>
      <trkpt lat="47.71232" lon="5.09029">
        <ele>476.23</ele>
        <time>2021-08-26T16:46:59Z</time>
      </trkpt>
      <trkpt lat="47.71232" lon="5.0902">
        <ele>475.69</ele>
        <time>2021-08-26T16:47:18Z</time>
      </trkpt>
      <trkpt lat="47.71232" lon="5.09017">
        <ele>475.65</ele>
        <time>2021-08-26T16:47:36Z</time>
      </trkpt>
      <trkpt lat="47.71231" lon="5.09006">
        <ele>474.97</ele>
        <time>2021-08-26T16:47:44Z</time>
      </trkpt>
      <trkpt lat="47.71233" lon="5.08979">
        <ele>473.97</ele>
        <time>2021-08-26T16:48:01Z</time>
      </trkpt>
      <trkpt lat="47.71239" lon="5.08958">
        <ele>474.08</ele>
        <time>2021-08-26T16:48:16Z</time>
      </trkpt>
      <trkpt lat="47.7124" lon="5.08955">
        <ele>473.89</ele>
        <time>2021-08-26T16:48:19Z</time>
      </trkpt>
      <trkpt lat="47.71249" lon="5.08936">
        <ele>472.68</ele>
        <time>2021-08-26T16:48:33Z</time>
      </trkpt>
      <trkpt lat="47.71251" lon="5.08934">
        <ele>472.42</ele>
        <time>2021-08-26T16:48:36Z</time>
      </trkpt>
      <trkpt lat="47.71261" lon="5.0892">
        <ele>471.27</ele>
        <time>2021-08-26T16:48:50Z</time>
      </trkpt>
      <trkpt lat="47.71262" lon="5.08918">
        <ele>471.23</ele>
        <time>2021-08-26T16:48:52Z</time>
      </trkpt>
      <trkpt lat="47.71271" lon="5.08906">
        <ele>469.79</ele>
        <time>2021-08-26T16:49:04Z</time>
      </trkpt>
      <trkpt lat="47.71277" lon="5.08898">
        <ele>468.99</ele>
        <time>2021-08-26T16:49:12Z</time>
      </trkpt>
      <trkpt lat="47.71281" lon="5.08891">
        <ele>468.45</ele>
        <time>2021-08-26T16:49:18Z</time>
      </trkpt>
      <trkpt lat="47.71284" lon="5.08889">
        <ele>468.29</ele>
        <time>2021-08-26T16:49:21Z</time>
      </trkpt>
      <trkpt lat="47.7129" lon="5.08884">
        <ele>467.51</ele>
        <time>2021-08-26T16:49:34Z</time>
      </trkpt>
      <trkpt lat="47.71295" lon="5.08879">
        <ele>467.08</ele>
        <time>2021-08-26T16:49:40Z</time>
      </trkpt>
      <trkpt lat="47.71303" lon="5.08862">
        <ele>466.24</ele>
        <time>2021-08-26T16:49:54Z</time>
      </trkpt>
      <trkpt lat="47.71307" lon="5.0886">
        <ele>466.05</ele>
        <time>2021-08-26T16:50:11Z</time>
      </trkpt>
      <trkpt lat="47.71303" lon="5.0887">
        <ele>466.27</ele>
        <time>2021-08-26T16:51:03Z</time>
      </trkpt>
      <trkpt lat="47.71302" lon="5.08871">
        <ele>466.64</ele>
        <time>2021-08-26T16:51:32Z</time>
      </trkpt>
      <trkpt lat="47.71296" lon="5.08883">
        <ele>467.12</ele>
        <time>2021-08-26T16:51:47Z</time>
      </trkpt>
      <trkpt lat="47.7129" lon="5.08896">
        <ele>467.55</ele>
        <time>2021-08-26T16:52:01Z</time>
      </trkpt>
      <trkpt lat="47.71286" lon="5.089">
        <ele>468.01</ele>
        <time>2021-08-26T16:52:06Z</time>
      </trkpt>
      <trkpt lat="47.71284" lon="5.08906">
        <ele>468.14</ele>
        <time>2021-08-26T16:52:11Z</time>
      </trkpt>
      <trkpt lat="47.71278" lon="5.08925">
        <ele>468.87</ele>
        <time>2021-08-26T16:52:26Z</time>
      </trkpt>
      <trkpt lat="47.71267" lon="5.0894">
        <ele>470.27</ele>
        <time>2021-08-26T16:52:40Z</time>
      </trkpt>
      <trkpt lat="47.7126" lon="5.08955">
        <ele>471.39</ele>
        <time>2021-08-26T16:52:54Z</time>
      </trkpt>
      <trkpt lat="47.71258" lon="5.08957">
        <ele>471.52</ele>
        <time>2021-08-26T16:52:56Z</time>
      </trkpt>
      <trkpt lat="47.71254" lon="5.0897">
        <ele>472.53</ele>
        <time>2021-08-26T16:53:08Z</time>
      </trkpt>
      <trkpt lat="47.71252" lon="5.08972">
        <ele>472.73</ele>
        <time>2021-08-26T16:53:10Z</time>
      </trkpt>
      <trkpt lat="47.71247" lon="5.08979">
        <ele>472.93</ele>
        <time>2021-08-26T16:53:16Z</time>
      </trkpt>
      <trkpt lat="47.7124" lon="5.08996">
        <ele>474.62</ele>
        <time>2021-08-26T16:53:32Z</time>
      </trkpt>
      <trkpt lat="47.71238" lon="5.09009">
        <ele>475.61</ele>
        <time>2021-08-26T16:53:42Z</time>
      </trkpt>
      <trkpt lat="47.71237" lon="5.09036">
        <ele>476.5</ele>
        <time>2021-08-26T16:53:59Z</time>
      </trkpt>
      <trkpt lat="47.71236" lon="5.09041">
        <ele>476.82</ele>
        <time>2021-08-26T16:54:04Z</time>
      </trkpt>
      <trkpt lat="47.71236" lon="5.09043">
        <ele>476.71</ele>
        <time>2021-08-26T16:54:06Z</time>
      </trkpt>
      <trkpt lat="47.71236" lon="5.09065">
        <ele>477.9</ele>
        <time>2021-08-26T16:54:21Z</time>
      </trkpt>
      <trkpt lat="47.71235" lon="5.09069">
        <ele>478.03</ele>
        <time>2021-08-26T16:54:24Z</time>
      </trkpt>
      <trkpt lat="47.71234" lon="5.09072">
        <ele>478.17</ele>
        <time>2021-08-26T16:54:26Z</time>
      </trkpt>
      <trkpt lat="47.71233" lon="5.09075">
        <ele>478.17</ele>
        <time>2021-08-26T16:54:28Z</time>
      </trkpt>
      <trkpt lat="47.71232" lon="5.0909">
        <ele>479.13</ele>
        <time>2021-08-26T16:54:40Z</time>
      </trkpt>
      <trkpt lat="47.71231" lon="5.09097">
        <ele>479.37</ele>
        <time>2021-08-26T16:54:44Z</time>
      </trkpt>
      <trkpt lat="47.7123" lon="5.09103">
        <ele>479.82</ele>
        <time>2021-08-26T16:54:48Z</time>
      </trkpt>
      <trkpt lat="47.71228" lon="5.09127">
        <ele>481.19</ele>
        <time>2021-08-26T16:55:06Z</time>
      </trkpt>
      <trkpt lat="47.71228" lon="5.09129">
        <ele>481.23</ele>
        <time>2021-08-26T16:55:07Z</time>
      </trkpt>
      <trkpt lat="47.71227" lon="5.09139">
        <ele>481.05</ele>
        <time>2021-08-26T16:55:14Z</time>
      </trkpt>
      <trkpt lat="47.71226" lon="5.09146">
        <ele>481.55</ele>
        <time>2021-08-26T16:55:31Z</time>
      </trkpt>
      <trkpt lat="47.71235" lon="5.09129">
        <ele>480.66</ele>
        <time>2021-08-26T16:55:44Z</time>
      </trkpt>
      <trkpt lat="47.71238" lon="5.09125">
        <ele>480.25</ele>
        <time>2021-08-26T16:55:48Z</time>
      </trkpt>
      <trkpt lat="47.71249" lon="5.09106">
        <ele>479.42</ele>
        <time>2021-08-26T16:56:06Z</time>
      </trkpt>
      <trkpt lat="47.71251" lon="5.09102">
        <ele>479.21</ele>
        <time>2021-08-26T16:56:09Z</time>
      </trkpt>
      <trkpt lat="47.71259" lon="5.09088">
        <ele>478.34</ele>
        <time>2021-08-26T16:56:23Z</time>
      </trkpt>
      <trkpt lat="47.71269" lon="5.09071">
        <ele>476.28</ele>
        <time>2021-08-26T16:56:39Z</time>
      </trkpt>
      <trkpt lat="47.71271" lon="5.09066">
        <ele>475.79</ele>
        <time>2021-08-26T16:56:43Z</time>
      </trkpt>
      <trkpt lat="47.71277" lon="5.09055">
        <ele>474.76</ele>
        <time>2021-08-26T16:56:57Z</time>
      </trkpt>
      <trkpt lat="47.71277" lon="5.09049">
        <ele>474.7</ele>
        <time>2021-08-26T16:57:21Z</time>
      </trkpt>
      <trkpt lat="47.71277" lon="5.09051">
        <ele>475.09</ele>
        <time>2021-08-26T16:57:59Z</time>
      </trkpt>
      <trkpt lat="47.71278" lon="5.09055">
        <ele>475.26</ele>
        <time>2021-08-26T16:58:01Z</time>
      </trkpt>
      <trkpt lat="47.71284" lon="5.09064">
        <ele>475.34</ele>
        <time>2021-08-26T16:58:09Z</time>
      </trkpt>
      <trkpt lat="47.71287" lon="5.09071">
        <ele>475.55</ele>
        <time>2021-08-26T16:58:14Z</time>
      </trkpt>
      <trkpt lat="47.71295" lon="5.09081">
        <ele>475.84</ele>
        <time>2021-08-26T16:58:29Z</time>
      </trkpt>
      <trkpt lat="47.71299" lon="5.09087">
        <ele>476.07</ele>
        <time>2021-08-26T16:58:33Z</time>
      </trkpt>
      <trkpt lat="47.71297" lon="5.09087">
        <ele>476.49</ele>
        <time>2021-08-26T16:58:41Z</time>
      </trkpt>
      <trkpt lat="47.71311" lon="5.09092">
        <ele>476.05</ele>
        <time>2021-08-26T16:58:55Z</time>
      </trkpt>
      <trkpt lat="47.7132" lon="5.09096">
        <ele>476.25</ele>
        <time>2021-08-26T16:59:04Z</time>
      </trkpt>
      <trkpt lat="47.71323" lon="5.09098">
        <ele>475.88</ele>
        <time>2021-08-26T16:59:08Z</time>
      </trkpt>
      <trkpt lat="47.71335" lon="5.09105">
        <ele>475.46</ele>
        <time>2021-08-26T16:59:20Z</time>
      </trkpt>
      <trkpt lat="47.71339" lon="5.09107">
        <ele>475.42</ele>
        <time>2021-08-26T16:59:23Z</time>
      </trkpt>
      <trkpt lat="47.7135" lon="5.09108">
        <ele>474.5</ele>
        <time>2021-08-26T16:59:37Z</time>
      </trkpt>
      <trkpt lat="47.7136" lon="5.09112">
        <ele>473.96</ele>
        <time>2021-08-26T16:59:49Z</time>
      </trkpt>
      <trkpt lat="47.71375" lon="5.09118">
        <ele>474.07</ele>
        <time>2021-08-26T17:00:05Z</time>
      </trkpt>
      <trkpt lat="47.71384" lon="5.09122">
        <ele>474.41</ele>
        <time>2021-08-26T17:00:17Z</time>
      </trkpt>
      <trkpt lat="47.71397" lon="5.09128">
        <ele>474.13</ele>
        <time>2021-08-26T17:00:32Z</time>
      </trkpt>
      <trkpt lat="47.71409" lon="5.09134">
        <ele>473.8</ele>
        <time>2021-08-26T17:00:45Z</time>
      </trkpt>
      <trkpt lat="47.71425" lon="5.09141">
        <ele>473.6</ele>
        <time>2021-08-26T17:01:03Z</time>
      </trkpt>
      <trkpt lat="47.7143" lon="5.09149">
        <ele>473.35</ele>
        <time>2021-08-26T17:01:11Z</time>
      </trkpt>
      <trkpt lat="47.71443" lon="5.09165">
        <ele>473.53</ele>
        <time>2021-08-26T17:01:28Z</time>
      </trkpt>
      <trkpt lat="47.71444" lon="5.09167">
        <ele>473.51</ele>
        <time>2021-08-26T17:01:30Z</time>
      </trkpt>
      <trkpt lat="47.71452" lon="5.0917">
        <ele>472.94</ele>
        <time>2021-08-26T17:01:44Z</time>
      </trkpt>
      <trkpt lat="47.71461" lon="5.09181">
        <ele>473.17</ele>
        <time>2021-08-26T17:01:58Z</time>
      </trkpt>
      <trkpt lat="47.71466" lon="5.09192">
        <ele>472.42</ele>
        <time>2021-08-26T17:02:11Z</time>
      </trkpt>
      <trkpt lat="47.71468" lon="5.09191">
        <ele>472.81</ele>
        <time>2021-08-26T17:02:14Z</time>
      </trkpt>
      <trkpt lat="47.71472" lon="5.09204">
        <ele>473.45</ele>
        <time>2021-08-26T17:02:26Z</time>
      </trkpt>
      <trkpt lat="47.71481" lon="5.09211">
        <ele>473.07</ele>
        <time>2021-08-26T17:02:39Z</time>
      </trkpt>
      <trkpt lat="47.71488" lon="5.09222">
        <ele>473.26</ele>
        <time>2021-08-26T17:02:49Z</time>
      </trkpt>
      <trkpt lat="47.71489" lon="5.09224">
        <ele>472.97</ele>
        <time>2021-08-26T17:02:52Z</time>
      </trkpt>
      <trkpt lat="47.715" lon="5.09242">
        <ele>472.97</ele>
        <time>2021-08-26T17:03:08Z</time>
      </trkpt>
      <trkpt lat="47.7151" lon="5.09257">
        <ele>472.92</ele>
        <time>2021-08-26T17:03:21Z</time>
      </trkpt>
      <trkpt lat="47.71514" lon="5.09261">
        <ele>472.79</ele>
        <time>2021-08-26T17:03:26Z</time>
      </trkpt>
      <trkpt lat="47.71522" lon="5.09268">
        <ele>472.85</ele>
        <time>2021-08-26T17:03:36Z</time>
      </trkpt>
      <trkpt lat="47.71531" lon="5.0928">
        <ele>472.67</ele>
        <time>2021-08-26T17:03:50Z</time>
      </trkpt>
      <trkpt lat="47.7154" lon="5.09291">
        <ele>472.44</ele>
        <time>2021-08-26T17:04:03Z</time>
      </trkpt>
      <trkpt lat="47.71545" lon="5.09298">
        <ele>472.18</ele>
        <time>2021-08-26T17:04:18Z</time>
      </trkpt>
      <trkpt lat="47.71553" lon="5.0931">
        <ele>471.55</ele>
        <time>2021-08-26T17:04:28Z</time>
      </trkpt>
      <trkpt lat="47.71562" lon="5.09322">
        <ele>471.29</ele>
        <time>2021-08-26T17:04:42Z</time>
      </trkpt>
      <trkpt lat="47.71572" lon="5.09333">
        <ele>470.29</ele>
        <time>2021-08-26T17:04:56Z</time>
      </trkpt>
      <trkpt lat="47.71577" lon="5.09343">
        <ele>469.62</ele>
        <time>2021-08-26T17:05:03Z</time>
      </trkpt>
      <trkpt lat="47.71585" lon="5.09359">
        <ele>468.33</ele>
        <time>2021-08-26T17:05:17Z</time>
      </trkpt>
      <trkpt lat="47.71589" lon="5.09366">
        <ele>467.72</ele>
        <time>2021-08-26T17:05:23Z</time>
      </trkpt>
      <trkpt lat="47.71591" lon="5.09371">
        <ele>467.05</ele>
        <time>2021-08-26T17:05:27Z</time>
      </trkpt>
      <trkpt lat="47.716" lon="5.09392">
        <ele>465.29</ele>
        <time>2021-08-26T17:05:44Z</time>
      </trkpt>
      <trkpt lat="47.71611" lon="5.09413">
        <ele>463.8</ele>
        <time>2021-08-26T17:06:01Z</time>
      </trkpt>
      <trkpt lat="47.71617" lon="5.09427">
        <ele>462.45</ele>
        <time>2021-08-26T17:06:14Z</time>
      </trkpt>
      <trkpt lat="47.71624" lon="5.09439">
        <ele>461.48</ele>
        <time>2021-08-26T17:06:26Z</time>
      </trkpt>
      <trkpt lat="47.71634" lon="5.0946">
        <ele>460.17</ele>
        <time>2021-08-26T17:06:43Z</time>
      </trkpt>
      <trkpt lat="47.71636" lon="5.09477">
        <ele>460.92</ele>
        <time>2021-08-26T17:06:57Z</time>
      </trkpt>
      <trkpt lat="47.7163" lon="5.09502">
        <ele>463.43</ele>
        <time>2021-08-26T17:07:13Z</time>
      </trkpt>
      <trkpt lat="47.71627" lon="5.09507">
        <ele>463.81</ele>
        <time>2021-08-26T17:07:17Z</time>
      </trkpt>
      <trkpt lat="47.71618" lon="5.09524">
        <ele>465.28</ele>
        <time>2021-08-26T17:07:31Z</time>
      </trkpt>
      <trkpt lat="47.71615" lon="5.09533">
        <ele>466.21</ele>
        <time>2021-08-26T17:07:39Z</time>
      </trkpt>
      <trkpt lat="47.71607" lon="5.09553">
        <ele>467.22</ele>
        <time>2021-08-26T17:07:56Z</time>
      </trkpt>
      <trkpt lat="47.71604" lon="5.09559">
        <ele>467.62</ele>
        <time>2021-08-26T17:08:01Z</time>
      </trkpt>
      <trkpt lat="47.71595" lon="5.09577">
        <ele>468.65</ele>
        <time>2021-08-26T17:08:16Z</time>
      </trkpt>
      <trkpt lat="47.71587" lon="5.09593">
        <ele>469.39</ele>
        <time>2021-08-26T17:08:31Z</time>
      </trkpt>
      <trkpt lat="47.71584" lon="5.09601">
        <ele>469.96</ele>
        <time>2021-08-26T17:08:38Z</time>
      </trkpt>
      <trkpt lat="47.71577" lon="5.09612">
        <ele>471.1</ele>
        <time>2021-08-26T17:08:54Z</time>
      </trkpt>
      <trkpt lat="47.71577" lon="5.09615">
        <ele>471.03</ele>
        <time>2021-08-26T17:09:13Z</time>
      </trkpt>
      <trkpt lat="47.71569" lon="5.0963">
        <ele>472.29</ele>
        <time>2021-08-26T17:09:27Z</time>
      </trkpt>
      <trkpt lat="47.71562" lon="5.09651">
        <ele>473.99</ele>
        <time>2021-08-26T17:09:43Z</time>
      </trkpt>
      <trkpt lat="47.71553" lon="5.09669">
        <ele>476.17</ele>
        <time>2021-08-26T17:09:58Z</time>
      </trkpt>
      <trkpt lat="47.71547" lon="5.09687">
        <ele>477.41</ele>
        <time>2021-08-26T17:10:12Z</time>
      </trkpt>
      <trkpt lat="47.71539" lon="5.09703">
        <ele>479.13</ele>
        <time>2021-08-26T17:10:26Z</time>
      </trkpt>
      <trkpt lat="47.71534" lon="5.09718">
        <ele>480.27</ele>
        <time>2021-08-26T17:10:42Z</time>
      </trkpt>
      <trkpt lat="47.71532" lon="5.09723">
        <ele>480.38</ele>
        <time>2021-08-26T17:10:58Z</time>
      </trkpt>
      <trkpt lat="47.71532" lon="5.09721">
        <ele>480.01</ele>
        <time>2021-08-26T17:11:28Z</time>
      </trkpt>
      <trkpt lat="47.71534" lon="5.09718">
        <ele>480.22</ele>
        <time>2021-08-26T17:12:14Z</time>
      </trkpt>
      <trkpt lat="47.71533" lon="5.09718">
        <ele>479.96</ele>
        <time>2021-08-26T17:12:39Z</time>
      </trkpt>
      <trkpt lat="47.7154" lon="5.09734">
        <ele>479.84</ele>
        <time>2021-08-26T17:12:58Z</time>
      </trkpt>
      <trkpt lat="47.71544" lon="5.09725">
        <ele>479.16</ele>
        <time>2021-08-26T17:13:13Z</time>
      </trkpt>
      <trkpt lat="47.71545" lon="5.09729">
        <ele>479.41</ele>
        <time>2021-08-26T17:13:44Z</time>
      </trkpt>
      <trkpt lat="47.71553" lon="5.09736">
        <ele>478.99</ele>
        <time>2021-08-26T17:14:04Z</time>
      </trkpt>
      <trkpt lat="47.71563" lon="5.0975">
        <ele>478.47</ele>
        <time>2021-08-26T17:14:17Z</time>
      </trkpt>
      <trkpt lat="47.71575" lon="5.09765">
        <ele>478.74</ele>
        <time>2021-08-26T17:14:31Z</time>
      </trkpt>
      <trkpt lat="47.71585" lon="5.09777">
        <ele>478.82</ele>
        <time>2021-08-26T17:14:45Z</time>
      </trkpt>
      <trkpt lat="47.71597" lon="5.09786">
        <ele>478.57</ele>
        <time>2021-08-26T17:15:00Z</time>
      </trkpt>
      <trkpt lat="47.71612" lon="5.09792">
        <ele>478.47</ele>
        <time>2021-08-26T17:15:18Z</time>
      </trkpt>
      <trkpt lat="47.71625" lon="5.09807">
        <ele>478.46</ele>
        <time>2021-08-26T17:15:33Z</time>
      </trkpt>
      <trkpt lat="47.71642" lon="5.09817">
        <ele>476.04</ele>
        <time>2021-08-26T17:15:49Z</time>
      </trkpt>
      <trkpt lat="47.71642" lon="5.09817">
        <ele>479.07</ele>
        <time>2021-08-26T17:15:52Z</time>
      </trkpt>
      <trkpt lat="47.71643" lon="5.09817">
        <ele>480.34</ele>
        <time>2021-08-26T17:15:54Z</time>
      </trkpt>
      <trkpt lat="47.71644" lon="5.0982">
        <ele>478.85</ele>
        <time>2021-08-26T17:15:57Z</time>
      </trkpt>
      <trkpt lat="47.71652" lon="5.09822">
        <ele>478.59</ele>
        <time>2021-08-26T17:16:11Z</time>
      </trkpt>
      <trkpt lat="47.71663" lon="5.09832">
        <ele>478.55</ele>
        <time>2021-08-26T17:16:23Z</time>
      </trkpt>
      <trkpt lat="47.71671" lon="5.09842">
        <ele>478.6</ele>
        <time>2021-08-26T17:16:33Z</time>
      </trkpt>
      <trkpt lat="47.71683" lon="5.09852">
        <ele>478.33</ele>
        <time>2021-08-26T17:16:50Z</time>
      </trkpt>
      <trkpt lat="47.71702" lon="5.09867">
        <ele>478.43</ele>
        <time>2021-08-26T17:17:05Z</time>
      </trkpt>
      <trkpt lat="47.71706" lon="5.09872">
        <ele>478.57</ele>
        <time>2021-08-26T17:17:10Z</time>
      </trkpt>
      <trkpt lat="47.71718" lon="5.09886">
        <ele>477.81</ele>
        <time>2021-08-26T17:17:26Z</time>
      </trkpt>
      <trkpt lat="47.71733" lon="5.09902">
        <ele>479.32</ele>
        <time>2021-08-26T17:17:52Z</time>
      </trkpt>
      <trkpt lat="47.71741" lon="5.09907">
        <ele>479.04</ele>
        <time>2021-08-26T17:18:07Z</time>
      </trkpt>
      <trkpt lat="47.71751" lon="5.09907">
        <ele>478.91</ele>
        <time>2021-08-26T17:18:19Z</time>
      </trkpt>
      <trkpt lat="47.71757" lon="5.09907">
        <ele>478.79</ele>
        <time>2021-08-26T17:18:30Z</time>
      </trkpt>
      <trkpt lat="47.71761" lon="5.09905">
        <ele>478.48</ele>
        <time>2021-08-26T17:18:33Z</time>
      </trkpt>
      <trkpt lat="47.71762" lon="5.09912">
        <ele>478.18</ele>
        <time>2021-08-26T17:18:37Z</time>
      </trkpt>
      <trkpt lat="47.7176" lon="5.0992">
        <ele>478.13</ele>
        <time>2021-08-26T17:18:56Z</time>
      </trkpt>
      <trkpt lat="47.7176" lon="5.0992">
        <ele>478.31</ele>
        <time>2021-08-26T17:20:14Z</time>
      </trkpt>
    </trkseg>
  </trk>
</gpx>